Time;durP1;ratioP1;P1;durP2;ratioP2;P2;SDS_P1;SDS_P2;PMS_P1;PMS_P2;Temp;Humidity;BMP_temperature;BMP_pressure;BME280_temperature;BME280_humidity;BME280_pressure;Samples;Min_cycle;Max_cycle;Signal;HPM_P1;HPM_P2
2023/03/09 00:00:40;;;;;;;1.67;1.08;;;3.40;78.00;;;;;;5056934;28;20085;-65
2023/03/09 00:03:15;;;;;;;0.00;0.00;;;3.30;78.00;;;;;;5073461;28;20068;-65
2023/03/09 00:05:50;;;;;;;0.45;0.45;;;3.20;78.00;;;;;;5073955;28;20031;-65
2023/03/09 00:08:16;;;;;;;0.00;0.00;;;3.20;78.10;;;;;;5072631;28;20435;-64
2023/03/09 00:10:42;;;;;;;0.03;0.03;;;3.20;78.30;;;;;;5070673;28;20044;-65
2023/03/09 00:13:07;;;;;;;0.00;0.00;;;3.20;78.50;;;;;;5052711;28;20044;-65
2023/03/09 00:15:33;;;;;;;0.10;0.10;;;3.20;78.50;;;;;;5068623;28;20123;-65
2023/03/09 00:17:59;;;;;;;0.00;0.00;;;3.20;78.60;;;;;;5068045;28;20051;-65
2023/03/09 00:20:24;;;;;;;0.00;0.00;;;3.20;78.70;;;;;;5069192;28;20041;-64
2023/03/09 00:22:53;;;;;;;0.00;0.00;;;3.20;78.80;;;;;;5068954;28;20047;-64
2023/03/09 00:25:21;;;;;;;0.00;0.00;;;3.20;78.90;;;;;;5068891;28;20112;-64
2023/03/09 00:27:49;;;;;;;0.00;0.00;;;3.20;78.80;;;;;;5068546;28;20032;-64
2023/03/09 00:30:16;;;;;;;0.00;0.00;;;3.20;78.80;;;;;;5067957;28;20051;-65
2023/03/09 00:32:41;;;;;;;0.00;0.00;;;3.20;78.80;;;;;;5068401;28;20052;-64
2023/03/09 00:35:08;;;;;;;0.00;0.00;;;3.10;79.00;;;;;;5068550;28;20052;-64
2023/03/09 00:37:35;;;;;;;0.10;0.10;;;3.20;79.20;;;;;;5069132;28;20048;-65
2023/03/09 00:40:01;;;;;;;0.00;0.00;;;3.10;79.30;;;;;;5068876;28;20111;-64
2023/03/09 00:42:26;;;;;;;0.15;0.15;;;3.20;79.40;;;;;;5069347;28;20056;-65
2023/03/09 00:44:52;;;;;;;0.10;0.10;;;3.20;79.40;;;;;;5068292;28;20043;-65
2023/03/09 00:47:29;;;;;;;1.95;0.80;;;3.20;79.60;;;;;;5068904;28;20132;-64
2023/03/09 00:49:55;;;;;;;0.00;0.00;;;3.10;79.70;;;;;;5068075;28;20052;-64
2023/03/09 00:52:20;;;;;;;0.10;0.10;;;3.10;79.60;;;;;;5069815;28;20093;-65
2023/03/09 00:54:46;;;;;;;1.08;0.85;;;3.10;79.60;;;;;;5051551;28;20044;-65
2023/03/09 00:57:12;;;;;;;0.10;0.10;;;3.00;79.70;;;;;;5072007;28;20048;-64
2023/03/09 00:59:37;;;;;;;0.00;0.00;;;3.00;79.80;;;;;;5069164;28;20546;-64
2023/03/09 01:02:04;;;;;;;0.03;0.03;;;3.00;79.80;;;;;;5067568;28;20076;-64
2023/03/09 01:04:33;;;;;;;0.10;0.10;;;2.90;79.90;;;;;;5067172;28;20098;-64
2023/03/09 01:06:59;;;;;;;0.00;0.00;;;2.80;79.80;;;;;;5050284;28;20987;-65
2023/03/09 01:09:24;;;;;;;0.00;0.00;;;2.70;79.90;;;;;;5068721;28;20040;-65
2023/03/09 01:11:50;;;;;;;0.00;0.00;;;2.70;79.90;;;;;;5067945;28;20036;-64
2023/03/09 01:14:16;;;;;;;1.00;0.90;;;2.70;80.10;;;;;;5065635;28;20040;-63
2023/03/09 01:16:41;;;;;;;0.00;0.00;;;2.60;80.10;;;;;;5070121;28;20470;-65
2023/03/09 01:19:07;;;;;;;0.00;0.00;;;2.60;80.00;;;;;;5069452;28;20056;-65
2023/03/09 01:21:32;;;;;;;0.00;0.00;;;2.60;80.10;;;;;;5066920;28;20391;-64
2023/03/09 01:23:58;;;;;;;0.00;0.00;;;2.50;80.20;;;;;;5068279;28;20037;-64
2023/03/09 01:26:24;;;;;;;0.00;0.00;;;2.60;80.50;;;;;;5067655;28;20060;-65
2023/03/09 01:28:49;;;;;;;0.00;0.00;;;2.50;80.50;;;;;;5068331;28;20047;-66
2023/03/09 01:31:16;;;;;;;0.00;0.00;;;2.60;80.50;;;;;;5066066;28;20127;-65
2023/03/09 01:33:43;;;;;;;0.00;0.00;;;2.50;80.50;;;;;;5068275;28;20073;-65
2023/03/09 01:36:12;;;;;;;0.00;0.00;;;2.50;80.70;;;;;;5069026;28;20109;-65
2023/03/09 01:38:38;;;;;;;0.00;0.00;;;2.50;80.90;;;;;;5067866;28;20562;-65
2023/03/09 01:41:04;;;;;;;0.00;0.00;;;2.50;80.90;;;;;;5065829;28;20040;-65
2023/03/09 01:43:39;;;;;;;0.00;0.00;;;2.50;81.00;;;;;;5070974;28;20493;-65
2023/03/09 01:46:29;;;;;;;0.10;0.10;;;2.50;80.80;;;;;;5067687;28;20114;-65
2023/03/09 01:49:06;;;;;;;0.00;0.00;;;2.40;80.70;;;;;;5067724;28;20072;-65
2023/03/09 01:51:58;;;;;;;0.00;0.00;;;2.50;80.70;;;;;;5062745;28;20182;-65
2023/03/09 01:54:39;;;;;;;0.38;0.38;;;2.40;80.80;;;;;;5067008;28;20041;-65
2023/03/09 01:57:11;;;;;;;0.00;0.00;;;2.40;80.70;;;;;;5064584;28;20086;-65
2023/03/09 01:59:38;;;;;;;0.03;0.03;;;2.40;80.70;;;;;;5067916;28;20094;-65
2023/03/09 02:02:05;;;;;;;0.00;0.00;;;2.40;80.80;;;;;;5067793;28;20044;-65
2023/03/09 02:04:37;;;;;;;0.50;0.50;;;2.40;80.70;;;;;;5067500;28;20040;-65
2023/03/09 02:07:04;;;;;;;0.00;0.00;;;2.40;80.70;;;;;;5069216;28;20075;-65
2023/03/09 02:09:38;;;;;;;0.10;0.10;;;2.40;80.60;;;;;;5064156;28;20474;-65
2023/03/09 02:12:05;;;;;;;0.00;0.00;;;2.40;80.40;;;;;;5063315;28;20422;-65
2023/03/09 02:14:31;;;;;;;2.17;0.47;;;2.30;80.60;;;;;;5078473;28;20033;-65
2023/03/09 02:16:57;;;;;;;0.20;0.20;;;2.20;80.80;;;;;;5066252;28;20039;-64
2023/03/09 02:19:43;;;;;;;0.00;0.00;;;2.20;81.00;;;;;;5067006;28;20052;-65
2023/03/09 02:22:09;;;;;;;0.05;0.05;;;2.20;81.00;;;;;;5058263;28;20074;-64
2023/03/09 02:24:45;;;;;;;0.00;0.00;;;2.30;80.80;;;;;;5063319;28;20440;-65
2023/03/09 02:27:22;;;;;;;0.13;0.13;;;2.20;80.90;;;;;;5049745;28;20040;-64
2023/03/09 02:29:48;;;;;;;0.00;0.00;;;2.10;80.90;;;;;;5065757;28;20045;-65
2023/03/09 02:32:15;;;;;;;0.10;0.10;;;2.20;81.00;;;;;;5067184;28;20036;-64
2023/03/09 02:34:40;;;;;;;0.00;0.00;;;2.10;81.00;;;;;;5066423;28;20044;-65
2023/03/09 02:37:33;;;;;;;0.10;0.10;;;2.10;81.10;;;;;;5067211;28;20059;-65
2023/03/09 02:40:11;;;;;;;0.10;0.10;;;2.10;81.10;;;;;;5067110;28;20138;-65
2023/03/09 02:42:38;;;;;;;0.10;0.10;;;2.10;81.10;;;;;;5065737;28;20094;-64
2023/03/09 02:45:05;;;;;;;0.00;0.00;;;2.10;81.00;;;;;;5066190;28;20115;-64
2023/03/09 02:47:30;;;;;;;0.63;0.63;;;2.10;81.10;;;;;;5068484;28;20496;-64
2023/03/09 02:49:56;;;;;;;0.70;0.70;;;2.00;81.20;;;;;;5070849;28;20138;-65
2023/03/09 02:52:22;;;;;;;0.00;0.00;;;2.00;81.60;;;;;;5053162;28;20145;-64
2023/03/09 02:54:47;;;;;;;1.17;1.13;;;2.10;81.60;;;;;;5069570;28;20109;-65
2023/03/09 02:57:13;;;;;;;0.00;0.00;;;1.90;82.00;;;;;;5051772;28;20064;-65
2023/03/09 02:59:39;;;;;;;0.00;0.00;;;1.90;82.00;;;;;;5062622;28;20493;-64
2023/03/09 03:02:05;;;;;;;0.00;0.00;;;2.00;81.90;;;;;;5079348;28;20429;-65
2023/03/09 03:04:31;;;;;;;0.08;0.08;;;2.00;82.40;;;;;;5072125;28;20699;-65
2023/03/09 03:06:57;;;;;;;0.00;0.00;;;2.00;82.50;;;;;;5070958;28;20147;-64
2023/03/09 03:09:22;;;;;;;0.00;0.00;;;2.00;82.10;;;;;;5072114;28;20040;-65
2023/03/09 03:11:48;;;;;;;0.00;0.00;;;2.00;81.80;;;;;;5080947;28;20151;-65
2023/03/09 03:14:13;;;;;;;1.00;0.90;;;1.90;82.00;;;;;;5077748;28;20048;-64
2023/03/09 03:16:39;;;;;;;0.00;0.00;;;1.90;82.60;;;;;;5070937;28;20055;-65
2023/03/09 03:19:05;;;;;;;0.00;0.00;;;1.80;82.90;;;;;;5053140;28;20087;-65
2023/03/09 03:21:30;;;;;;;0.73;0.73;;;1.90;83.00;;;;;;5067354;28;20040;-65
2023/03/09 03:23:56;;;;;;;0.00;0.00;;;1.90;83.00;;;;;;5054921;28;20028;-64
2023/03/09 03:26:21;;;;;;;0.10;0.10;;;1.90;83.00;;;;;;5069246;28;20485;-64
2023/03/09 03:28:47;;;;;;;0.00;0.00;;;1.90;83.00;;;;;;5068551;28;20039;-65
2023/03/09 03:31:13;;;;;;;0.00;0.00;;;1.90;82.80;;;;;;5073588;28;20036;-65
2023/03/09 03:33:38;;;;;;;4.18;2.63;;;1.90;82.80;;;;;;5072333;28;20561;-65
2023/03/09 03:36:05;;;;;;;0.00;0.00;;;1.90;83.20;;;;;;5069732;28;20045;-65
2023/03/09 03:38:31;;;;;;;0.10;0.10;;;1.90;83.00;;;;;;5075805;28;20049;-65
2023/03/09 03:40:57;;;;;;;0.00;0.00;;;1.90;82.80;;;;;;5068658;28;20032;-65
2023/03/09 03:43:22;;;;;;;0.00;0.00;;;1.90;82.70;;;;;;5067691;28;20036;-65
2023/03/09 03:45:48;;;;;;;0.00;0.00;;;1.90;83.00;;;;;;5065079;28;20068;-65
2023/03/09 03:48:14;;;;;;;0.10;0.10;;;1.90;83.10;;;;;;5069245;28;20045;-65
2023/03/09 03:50:39;;;;;;;0.57;0.57;;;1.90;83.20;;;;;;5069313;28;20641;-65
2023/03/09 03:53:05;;;;;;;0.10;0.10;;;1.90;83.00;;;;;;5071758;28;20037;-65
2023/03/09 03:55:32;;;;;;;0.00;0.00;;;1.90;82.90;;;;;;5069357;28;20421;-64
2023/03/09 03:57:57;;;;;;;0.00;0.00;;;2.00;82.90;;;;;;5068536;28;20084;-65
2023/03/09 04:00:24;;;;;;;0.00;0.00;;;1.90;82.90;;;;;;5068516;28;20083;-65
2023/03/09 04:02:50;;;;;;;0.00;0.00;;;1.90;83.10;;;;;;5068894;28;20048;-65
2023/03/09 04:05:16;;;;;;;0.57;0.57;;;2.00;82.90;;;;;;5068596;28;20039;-64
2023/03/09 04:07:41;;;;;;;0.00;0.00;;;1.90;82.80;;;;;;5070845;28;20040;-64
2023/03/09 04:10:08;;;;;;;0.10;0.10;;;1.90;82.60;;;;;;5064844;28;20119;-65
2023/03/09 04:12:34;;;;;;;0.00;0.00;;;1.90;82.70;;;;;;5068595;28;20094;-65
2023/03/09 04:15:00;;;;;;;0.00;0.00;;;2.00;82.80;;;;;;5062595;28;20521;-64
2023/03/09 04:17:25;;;;;;;0.30;0.30;;;2.00;82.80;;;;;;5068665;28;20115;-64
2023/03/09 04:19:51;;;;;;;0.00;0.00;;;2.10;82.60;;;;;;5068132;28;20036;-64
2023/03/09 04:22:16;;;;;;;0.30;0.30;;;2.10;82.50;;;;;;5050585;28;20411;-64
2023/03/09 04:24:42;;;;;;;0.00;0.00;;;2.10;82.50;;;;;;5070310;28;20037;-64
2023/03/09 04:27:08;;;;;;;0.22;0.22;;;2.00;82.50;;;;;;5069841;28;20028;-65
2023/03/09 04:29:33;;;;;;;0.00;0.00;;;2.10;82.50;;;;;;5069615;28;20037;-65
2023/03/09 04:31:59;;;;;;;0.55;0.55;;;2.00;82.20;;;;;;5070246;28;20448;-65
2023/03/09 04:34:24;;;;;;;0.10;0.10;;;2.00;82.20;;;;;;5069802;28;20110;-65
2023/03/09 04:36:50;;;;;;;0.00;0.00;;;2.00;82.10;;;;;;5069697;28;20076;-65
2023/03/09 04:39:15;;;;;;;0.10;0.10;;;2.00;82.10;;;;;;5046387;28;20041;-64
2023/03/09 04:41:41;;;;;;;0.13;0.13;;;2.00;82.30;;;;;;5071575;28;20032;-65
2023/03/09 04:44:07;;;;;;;0.00;0.00;;;2.00;82.20;;;;;;5079328;28;20972;-65
2023/03/09 04:46:32;;;;;;;2.90;1.65;;;2.00;82.00;;;;;;5083449;28;20106;-65
2023/03/09 04:48:58;;;;;;;0.00;0.00;;;2.00;82.50;;;;;;5069788;28;20040;-64
2023/03/09 04:51:24;;;;;;;0.00;0.00;;;2.00;82.40;;;;;;5073524;28;20036;-64
2023/03/09 04:53:50;;;;;;;0.00;0.00;;;2.00;82.40;;;;;;5069807;28;20090;-65
2023/03/09 04:56:15;;;;;;;0.00;0.00;;;2.10;82.10;;;;;;5069869;28;20036;-64
2023/03/09 04:58:41;;;;;;;0.52;0.50;;;1.90;82.20;;;;;;5073654;28;21092;-65
2023/03/09 05:01:07;;;;;;;0.10;0.10;;;1.90;82.40;;;;;;5071349;28;20554;-64
2023/03/09 05:03:32;;;;;;;0.00;0.00;;;1.90;82.50;;;;;;5079877;28;20093;-65
2023/03/09 05:05:58;;;;;;;0.00;0.00;;;1.90;82.70;;;;;;5077178;28;20040;-65
2023/03/09 05:08:24;;;;;;;1.90;1.65;;;1.90;82.70;;;;;;5069263;28;20119;-65
2023/03/09 05:10:49;;;;;;;0.10;0.10;;;1.90;82.70;;;;;;5069072;28;20045;-65
2023/03/09 05:13:16;;;;;;;0.10;0.10;;;2.00;82.50;;;;;;5078526;28;20048;-65
2023/03/09 05:15:41;;;;;;;0.93;0.93;;;1.80;82.60;;;;;;5079927;28;20047;-65
2023/03/09 05:18:08;;;;;;;1.02;1.00;;;1.90;82.70;;;;;;5076422;28;20032;-65
2023/03/09 05:20:34;;;;;;;0.00;0.00;;;1.80;83.10;;;;;;5076040;28;20044;-65
2023/03/09 05:23:00;;;;;;;0.43;0.43;;;1.70;83.30;;;;;;5076399;28;20037;-65
2023/03/09 05:25:26;;;;;;;0.20;0.20;;;1.70;83.50;;;;;;5069584;28;20037;-65
2023/03/09 05:27:52;;;;;;;0.10;0.10;;;1.70;83.80;;;;;;5073242;28;20032;-65
2023/03/09 05:30:19;;;;;;;0.00;0.00;;;1.70;83.70;;;;;;5080043;28;20417;-65
2023/03/09 05:32:45;;;;;;;0.00;0.00;;;1.70;83.50;;;;;;5068793;28;20051;-64
2023/03/09 05:35:10;;;;;;;0.00;0.00;;;1.80;83.50;;;;;;5086620;28;20131;-65
2023/03/09 05:37:36;;;;;;;0.00;0.00;;;1.80;83.60;;;;;;5071917;28;20169;-64
2023/03/09 05:40:04;;;;;;;0.10;0.10;;;1.70;83.50;;;;;;5068347;28;20036;-65
2023/03/09 05:42:30;;;;;;;2.35;1.27;;;1.70;83.70;;;;;;5077628;28;20821;-65
2023/03/09 05:44:56;;;;;;;0.00;0.00;;;1.70;83.90;;;;;;5068836;28;20044;-65
2023/03/09 05:47:22;;;;;;;0.00;0.00;;;1.80;83.90;;;;;;5068361;28;20040;-65
2023/03/09 05:49:50;;;;;;;0.00;0.00;;;1.80;83.80;;;;;;5068463;28;20397;-64
2023/03/09 05:52:16;;;;;;;0.10;0.10;;;1.70;83.80;;;;;;5066988;28;20047;-64
2023/03/09 05:54:41;;;;;;;0.15;0.15;;;1.80;83.90;;;;;;5069037;28;20585;-64
2023/03/09 05:57:11;;;;;;;0.00;0.00;;;1.80;83.90;;;;;;5069122;28;20135;-65
2023/03/09 05:59:37;;;;;;;0.10;0.10;;;1.80;84.00;;;;;;5080807;28;20032;-64
2023/03/09 06:02:03;;;;;;;0.00;0.00;;;1.80;84.20;;;;;;5049995;28;20029;-64
2023/03/09 06:04:29;;;;;;;0.10;0.10;;;1.90;84.20;;;;;;5067785;28;20041;-64
2023/03/09 06:06:54;;;;;;;0.00;0.00;;;1.80;84.10;;;;;;5048704;28;20044;-65
2023/03/09 06:09:20;;;;;;;0.00;0.00;;;1.80;84.20;;;;;;5060142;28;20509;-66
2023/03/09 06:11:46;;;;;;;0.20;0.20;;;1.80;84.30;;;;;;5065525;28;20156;-64
2023/03/09 06:14:11;;;;;;;0.00;0.00;;;1.80;84.20;;;;;;5064491;28;20060;-65
2023/03/09 06:16:37;;;;;;;0.00;0.00;;;1.90;84.20;;;;;;5066876;28;20039;-65
2023/03/09 06:19:03;;;;;;;0.00;0.00;;;1.90;84.10;;;;;;5066215;28;20041;-65
2023/03/09 06:21:29;;;;;;;0.00;0.00;;;1.90;84.10;;;;;;5069687;28;20044;-65
2023/03/09 06:23:56;;;;;;;0.00;0.00;;;1.90;84.10;;;;;;5070738;28;20129;-64
2023/03/09 06:26:22;;;;;;;0.13;0.13;;;1.90;84.10;;;;;;5031351;28;20053;-64
2023/03/09 06:28:48;;;;;;;0.30;0.30;;;1.90;84.00;;;;;;5062818;28;20041;-64
2023/03/09 06:31:16;;;;;;;0.08;0.08;;;1.90;83.90;;;;;;5069758;28;20052;-65
2023/03/09 06:33:44;;;;;;;0.00;0.00;;;1.90;83.80;;;;;;5070710;28;20044;-64
2023/03/09 06:36:11;;;;;;;0.10;0.10;;;1.90;83.70;;;;;;5070649;28;20060;-64
2023/03/09 06:38:37;;;;;;;0.08;0.08;;;1.80;83.70;;;;;;5067305;28;20101;-64
2023/03/09 06:41:03;;;;;;;0.00;0.00;;;1.90;83.80;;;;;;5052451;28;20048;-64
2023/03/09 06:43:29;;;;;;;0.10;0.10;;;1.90;83.60;;;;;;5070197;28;20425;-65
2023/03/09 06:45:54;;;;;;;1.30;1.20;;;1.90;83.60;;;;;;5051979;28;20048;-65
2023/03/09 06:48:20;;;;;;;0.00;0.00;;;1.90;83.70;;;;;;5068758;28;20044;-64
2023/03/09 06:50:48;;;;;;;0.05;0.05;;;1.90;83.60;;;;;;5051412;28;20037;-64
2023/03/09 06:53:15;;;;;;;0.95;0.95;;;1.90;83.60;;;;;;5070279;28;20044;-64
2023/03/09 06:55:40;;;;;;;0.00;0.00;;;1.90;83.70;;;;;;5067767;28;20548;-64
2023/03/09 06:58:06;;;;;;;0.00;0.00;;;2.00;83.50;;;;;;5051598;28;20072;-64
2023/03/09 07:00:37;;;;;;;0.05;0.05;;;1.90;83.50;;;;;;5064867;28;20460;-64
2023/03/09 07:03:04;;;;;;;0.10;0.10;;;2.00;83.40;;;;;;5069642;28;20063;-64
2023/03/09 07:05:30;;;;;;;0.00;0.00;;;1.90;83.50;;;;;;5066734;28;20115;-65
2023/03/09 07:07:55;;;;;;;0.00;0.00;;;2.00;83.50;;;;;;5070704;28;20120;-64
2023/03/09 07:10:21;;;;;;;0.20;0.20;;;2.00;83.60;;;;;;5068909;28;20124;-64
2023/03/09 07:12:48;;;;;;;0.05;0.05;;;2.00;83.70;;;;;;5071062;28;20120;-64
2023/03/09 07:15:14;;;;;;;0.00;0.00;;;2.10;83.70;;;;;;5071036;28;20044;-65
2023/03/09 07:17:41;;;;;;;0.00;0.00;;;2.10;83.70;;;;;;5070685;28;20078;-65
2023/03/09 07:20:08;;;;;;;0.00;0.00;;;2.20;83.90;;;;;;5069894;28;20049;-66
2023/03/09 07:22:34;;;;;;;0.10;0.10;;;2.30;83.90;;;;;;5058674;28;20048;-65
2023/03/09 07:25:00;;;;;;;0.15;0.15;;;2.40;83.90;;;;;;5069981;28;20047;-65
2023/03/09 07:27:25;;;;;;;0.00;0.00;;;2.40;83.60;;;;;;5071304;28;20037;-65
2023/03/09 07:29:51;;;;;;;0.10;0.10;;;2.50;83.50;;;;;;5070365;28;20054;-66
2023/03/09 07:32:16;;;;;;;0.00;0.00;;;2.50;83.50;;;;;;5038047;28;20048;-65
2023/03/09 07:34:42;;;;;;;0.05;0.05;;;2.60;83.30;;;;;;5052301;28;20131;-64
2023/03/09 07:37:08;;;;;;;0.70;0.70;;;2.60;83.40;;;;;;5069823;28;20059;-63
2023/03/09 07:39:33;;;;;;;0.38;0.38;;;2.70;83.10;;;;;;5059203;28;20116;-63
2023/03/09 07:42:00;;;;;;;0.10;0.10;;;2.60;83.00;;;;;;5071114;28;20485;-64
2023/03/09 07:44:27;;;;;;;0.00;0.00;;;2.60;82.80;;;;;;5070520;28;20041;-63
2023/03/09 07:46:53;;;;;;;0.00;0.00;;;2.60;82.70;;;;;;5052389;28;20037;-64
2023/03/09 07:49:18;;;;;;;0.00;0.00;;;2.60;82.80;;;;;;5069523;28;20082;-64
2023/03/09 07:51:44;;;;;;;0.85;0.57;;;2.60;82.80;;;;;;5070182;28;20040;-64
2023/03/09 07:54:10;;;;;;;0.00;0.00;;;2.60;82.90;;;;;;5070606;28;20120;-64
2023/03/09 07:56:35;;;;;;;0.10;0.10;;;2.60;82.80;;;;;;5063938;28;20425;-64
2023/03/09 07:59:01;;;;;;;7.25;0.75;;;2.70;83.00;;;;;;5047565;28;20055;-64
2023/03/09 08:01:27;;;;;;;0.05;0.05;;;2.70;82.90;;;;;;5064148;28;20048;-64
2023/03/09 08:03:53;;;;;;;0.05;0.05;;;2.70;82.90;;;;;;5064384;28;20044;-63
2023/03/09 08:06:19;;;;;;;0.10;0.10;;;2.80;82.80;;;;;;5065278;28;20040;-64
2023/03/09 08:08:45;;;;;;;0.00;0.00;;;2.80;82.70;;;;;;5045620;28;20045;-64
2023/03/09 08:11:11;;;;;;;0.10;0.10;;;2.80;82.50;;;;;;5046122;28;20240;-64
2023/03/09 08:13:37;;;;;;;0.00;0.00;;;2.90;82.40;;;;;;5030925;28;20437;-64
2023/03/09 08:16:06;;;;;;;0.22;0.22;;;2.90;82.20;;;;;;5066558;28;20040;-64
2023/03/09 08:18:32;;;;;;;0.00;0.00;;;2.90;82.20;;;;;;5064624;28;20040;-64
2023/03/09 08:21:09;;;;;;;0.00;0.00;;;2.90;82.20;;;;;;5043036;28;20040;-64
2023/03/09 08:23:37;;;;;;;0.00;0.00;;;3.00;82.20;;;;;;5064276;28;20048;-64
2023/03/09 08:26:03;;;;;;;0.10;0.10;;;3.00;82.10;;;;;;5065094;28;20044;-64
2023/03/09 08:28:30;;;;;;;0.00;0.00;;;3.10;82.00;;;;;;5066824;28;20044;-65
2023/03/09 08:30:55;;;;;;;0.10;0.10;;;3.10;82.00;;;;;;5067242;28;20047;-64
2023/03/09 08:33:21;;;;;;;0.00;0.00;;;3.10;81.90;;;;;;5048037;28;20115;-64
2023/03/09 08:35:46;;;;;;;0.55;0.17;;;3.10;81.80;;;;;;5042527;28;20053;-64
2023/03/09 08:38:12;;;;;;;0.00;0.00;;;3.20;81.70;;;;;;5044905;28;20059;-64
2023/03/09 08:40:38;;;;;;;0.10;0.10;;;3.20;81.60;;;;;;5066922;28;20041;-63
2023/03/09 08:43:04;;;;;;;0.00;0.00;;;3.20;81.80;;;;;;5065607;28;20040;-64
2023/03/09 08:45:30;;;;;;;0.00;0.00;;;3.30;81.80;;;;;;5065670;28;20049;-63
2023/03/09 08:47:56;;;;;;;0.28;0.28;;;3.30;81.70;;;;;;5066798;28;20063;-63
2023/03/09 08:50:21;;;;;;;0.20;0.20;;;3.40;81.60;;;;;;5065676;28;20115;-63
2023/03/09 08:52:47;;;;;;;0.05;0.05;;;3.40;81.50;;;;;;5067227;28;20044;-63
2023/03/09 08:55:12;;;;;;;0.00;0.00;;;3.40;81.30;;;;;;5066949;28;20044;-63
2023/03/09 08:57:38;;;;;;;0.00;0.00;;;3.40;81.10;;;;;;5064576;28;20117;-63
2023/03/09 09:00:10;;;;;;;0.00;0.00;;;3.50;81.20;;;;;;5065863;28;20048;-63
2023/03/09 09:02:36;;;;;;;0.00;0.00;;;3.50;81.20;;;;;;5058946;28;20079;-63
2023/03/09 09:05:03;;;;;;;0.00;0.00;;;3.50;80.90;;;;;;5065504;28;20056;-63
2023/03/09 09:07:29;;;;;;;0.00;0.00;;;3.50;80.60;;;;;;5064434;28;20046;-63
2023/03/09 09:09:55;;;;;;;0.00;0.00;;;3.50;80.50;;;;;;5047333;28;20467;-63
2023/03/09 09:12:21;;;;;;;0.00;0.00;;;3.60;80.70;;;;;;5055260;28;20044;-62
2023/03/09 09:14:47;;;;;;;0.10;0.10;;;3.60;80.50;;;;;;5065979;28;20051;-62
2023/03/09 09:17:13;;;;;;;0.00;0.00;;;3.60;80.60;;;;;;5028431;28;20048;-62
2023/03/09 09:19:39;;;;;;;0.20;0.20;;;3.60;80.80;;;;;;5065959;28;20032;-63
2023/03/09 09:22:06;;;;;;;0.00;0.00;;;3.70;80.70;;;;;;5063689;28;20656;-63
2023/03/09 09:24:37;;;;;;;0.00;0.00;;;3.70;80.70;;;;;;5066556;28;20032;-62
2023/03/09 09:27:06;;;;;;;0.10;0.10;;;3.80;80.80;;;;;;5066844;28;20481;-63
2023/03/09 09:29:36;;;;;;;0.00;0.00;;;3.90;81.00;;;;;;5065290;28;20055;-63
2023/03/09 09:32:03;;;;;;;0.25;0.25;;;4.00;80.70;;;;;;5064899;28;20566;-63
2023/03/09 09:34:33;;;;;;;4.28;1.00;;;4.00;80.40;;;;;;5060167;28;20071;-63
2023/03/09 09:37:01;;;;;;;0.00;0.00;;;4.10;80.60;;;;;;5061351;28;20075;-63
2023/03/09 09:39:28;;;;;;;0.38;0.38;;;4.20;80.40;;;;;;5063072;28;20044;-62
2023/03/09 09:41:57;;;;;;;0.00;0.00;;;4.30;80.10;;;;;;5062873;28;20054;-62
2023/03/09 09:44:38;;;;;;;0.00;0.00;;;4.30;80.00;;;;;;5052976;28;20494;-62
2023/03/09 09:47:06;;;;;;;0.00;0.00;;;4.40;80.00;;;;;;5055537;28;20049;-62
2023/03/09 09:49:45;;;;;;;0.00;0.00;;;4.40;79.90;;;;;;5063644;28;20148;-63
2023/03/09 09:52:35;;;;;;;0.00;0.00;;;4.50;79.60;;;;;;5063716;28;20523;-63
2023/03/09 09:55:17;;;;;;;0.00;0.00;;;4.60;79.70;;;;;;5062326;28;20063;-63
2023/03/09 09:58:01;;;;;;;0.00;0.00;;;4.60;79.40;;;;;;5062673;28;20041;-63
2023/03/09 10:00:39;;;;;;;0.00;0.00;;;4.70;79.30;;;;;;5065493;28;20044;-62
2023/03/09 10:03:12;;;;;;;0.00;0.00;;;4.70;79.10;;;;;;5065840;28;20046;-63
2023/03/09 10:05:44;;;;;;;0.00;0.00;;;4.80;78.80;;;;;;5066289;28;20045;-63
2023/03/09 10:08:40;;;;;;;0.00;0.00;;;4.70;78.20;;;;;;5064553;28;20115;-62
2023/03/09 10:11:11;;;;;;;0.00;0.00;;;4.80;78.20;;;;;;5062533;28;20517;-62
2023/03/09 10:13:49;;;;;;;0.00;0.00;;;4.70;77.50;;;;;;5062946;28;20048;-64
2023/03/09 10:16:26;;;;;;;0.00;0.00;;;5.60;82.80;;;;;;5065066;28;20163;-63
2023/03/09 10:18:58;;;;;;;0.00;0.00;;;6.40;80.70;;;;;;5067323;28;20385;-62
2023/03/09 10:21:35;;;;;;;0.00;0.00;;;6.30;77.70;;;;;;5067793;28;20068;-63
2023/03/09 10:24:16;;;;;;;0.00;0.00;;;6.20;77.00;;;;;;5062979;28;20041;-63
2023/03/09 10:27:05;;;;;;;0.57;0.57;;;5.90;74.60;;;;;;5065148;28;20032;-62
2023/03/09 10:30:00;;;;;;;0.00;0.00;;;5.80;74.30;;;;;;5049185;28;20048;-63
2023/03/09 10:32:31;;;;;;;0.00;0.00;;;5.80;74.80;;;;;;5065723;28;20080;-63
2023/03/09 10:35:21;;;;;;;0.00;0.00;;;5.70;74.60;;;;;;5065679;28;20052;-63
2023/03/09 10:37:49;;;;;;;0.10;0.10;;;5.70;75.20;;;;;;5062000;28;20067;-62
2023/03/09 10:40:22;;;;;;;0.00;0.00;;;5.70;75.20;;;;;;5027027;28;20121;-63
2023/03/09 10:42:48;;;;;;;0.00;0.00;;;5.70;75.50;;;;;;5066037;28;20136;-62
2023/03/09 10:45:33;;;;;;;0.00;0.00;;;5.70;75.90;;;;;;5061857;28;20037;-63
2023/03/09 10:48:06;;;;;;;0.00;0.00;;;5.70;75.60;;;;;;5063452;28;20581;-63
2023/03/09 10:50:40;;;;;;;0.00;0.00;;;5.70;76.00;;;;;;5063850;28;20078;-63
2023/03/09 10:53:37;;;;;;;0.00;0.00;;;5.80;75.70;;;;;;5064100;28;20064;-63
2023/03/09 10:56:25;;;;;;;0.00;0.00;;;5.80;76.00;;;;;;5068249;28;20094;-63
2023/03/09 10:59:03;;;;;;;0.00;0.00;;;5.80;74.70;;;;;;5056561;28;20059;-63
2023/03/09 11:01:29;;;;;;;0.00;0.00;;;5.70;73.80;;;;;;5065237;28;20048;-63
2023/03/09 11:03:55;;;;;;;0.00;0.00;;;5.80;74.20;;;;;;5067580;28;20044;-63
2023/03/09 11:06:37;;;;;;;0.55;0.55;;;5.70;74.30;;;;;;5065075;28;20033;-63
2023/03/09 11:09:21;;;;;;;0.00;0.00;;;5.70;73.80;;;;;;5064965;28;20071;-63
2023/03/09 11:11:48;;;;;;;0.00;0.00;;;5.80;74.20;;;;;;5064280;28;20048;-62
2023/03/09 11:14:29;;;;;;;0.00;0.00;;;5.90;74.50;;;;;;5066471;28;20040;-63
2023/03/09 11:17:00;;;;;;;0.00;0.00;;;5.80;73.20;;;;;;5068352;28;20075;-63
2023/03/09 11:19:27;;;;;;;0.05;0.05;;;5.70;73.20;;;;;;5065208;28;20048;-63
2023/03/09 11:21:56;;;;;;;0.00;0.00;;;5.70;73.10;;;;;;5061694;28;20106;-62
2023/03/09 11:24:26;;;;;;;0.00;0.00;;;5.70;72.80;;;;;;5066197;28;20045;-63
2023/03/09 11:27:05;;;;;;;0.00;0.00;;;5.60;72.70;;;;;;5065511;28;20060;-63
2023/03/09 11:29:51;;;;;;;0.00;0.00;;;5.60;73.40;;;;;;5064723;28;20394;-63
2023/03/09 11:32:17;;;;;;;0.20;0.20;;;5.70;73.30;;;;;;5059719;28;20729;-63
2023/03/09 11:34:44;;;;;;;0.00;0.00;;;5.70;73.60;;;;;;5063768;28;20076;-63
2023/03/09 11:37:42;;;;;;;0.00;0.00;;;5.70;73.50;;;;;;5062248;28;20181;-63
2023/03/09 11:40:17;;;;;;;0.10;0.10;;;5.80;73.90;;;;;;5054311;28;20086;-63
2023/03/09 11:42:49;;;;;;;0.10;0.10;;;5.70;73.00;;;;;;5061688;28;20048;-63
2023/03/09 11:45:19;;;;;;;;;;;5.70;72.70;;;;;;5045619;28;20496;-63
2023/03/09 11:47:55;;;;;;;0.00;0.00;;;5.70;73.10;;;;;;5062806;28;20628;-62
2023/03/09 11:50:25;;;;;;;0.08;0.08;;;5.80;73.80;;;;;;5060914;28;20466;-63
2023/03/09 11:53:00;;;;;;;0.00;0.00;;;5.90;73.60;;;;;;5041897;28;20155;-63
2023/03/09 11:55:43;;;;;;;0.45;0.45;;;5.90;73.40;;;;;;5065308;28;20093;-63
2023/03/09 11:58:14;;;;;;;0.08;0.08;;;6.00;73.30;;;;;;5046504;28;20708;-63
2023/03/09 12:00:46;;;;;;;0.00;0.00;;;6.10;73.50;;;;;;5064397;28;20093;-64
2023/03/09 12:03:17;;;;;;;0.22;0.22;;;6.10;73.90;;;;;;5062042;28;20119;-64
2023/03/09 12:05:51;;;;;;;0.08;0.08;;;6.20;73.50;;;;;;5065515;28;20036;-63
2023/03/09 12:08:33;;;;;;;0.00;0.00;;;6.30;73.10;;;;;;5059713;28;20154;-63
2023/03/09 12:11:03;;;;;;;;;;;6.40;72.70;;;;;;5064666;28;20028;-63
2023/03/09 12:13:47;;;;;;;0.00;0.00;;;6.40;72.20;;;;;;5062917;28;20502;-64
2023/03/09 12:16:28;;;;;;;0.00;0.00;;;6.40;72.60;;;;;;5071244;28;20509;-64
2023/03/09 12:19:01;;;;;;;0.20;0.20;;;6.50;72.80;;;;;;5063201;28;20056;-63
2023/03/09 12:21:39;;;;;;;0.00;0.00;;;6.60;72.80;;;;;;5066240;28;20067;-63
2023/03/09 12:24:41;;;;;;;0.00;0.00;;;6.60;73.00;;;;;;5064208;28;20102;-63
2023/03/09 12:27:22;;;;;;;0.10;0.10;;;6.60;72.30;;;;;;5048058;28;20048;-64
2023/03/09 12:29:54;;;;;;;0.00;0.00;;;6.60;72.10;;;;;;5060880;28;20059;-62
2023/03/09 12:32:36;;;;;;;0.00;0.00;;;6.60;71.20;;;;;;5062454;28;20115;-63
2023/03/09 12:35:11;;;;;;;0.00;0.00;;;6.60;70.60;;;;;;5065544;28;20493;-63
2023/03/09 12:37:36;;;;;;;0.00;0.00;;;6.60;71.80;;;;;;5067856;28;20075;-62
2023/03/09 12:40:29;;;;;;;0.00;0.00;;;6.50;71.50;;;;;;5065847;28;20449;-63
2023/03/09 12:43:18;;;;;;;0.00;0.00;;;6.60;71.60;;;;;;5048174;28;20046;-63
2023/03/09 12:45:46;;;;;;;0.00;0.00;;;6.50;72.20;;;;;;5056370;28;20055;-63
2023/03/09 12:48:28;;;;;;;0.00;0.00;;;6.50;72.30;;;;;;5062654;28;20033;-64
2023/03/09 12:51:02;;;;;;;;;;;6.50;72.30;;;;;;5064357;28;20657;-62
2023/03/09 12:53:32;;;;;;;0.00;0.00;;;6.50;72.40;;;;;;5065973;28;19943;-63
2023/03/09 12:55:59;;;;;;;0.00;0.00;;;6.40;72.30;;;;;;5063142;28;20087;-63
2023/03/09 12:58:27;;;;;;;0.00;0.00;;;6.50;72.60;;;;;;5062014;28;20044;-62
2023/03/09 13:01:00;;;;;;;0.00;0.00;;;6.50;72.90;;;;;;5064943;28;20087;-62
2023/03/09 13:03:50;;;;;;;0.00;0.00;;;6.50;72.80;;;;;;5065971;28;20036;-63
2023/03/09 13:06:42;;;;;;;0.00;0.00;;;6.40;71.50;;;;;;5063977;28;20589;-63
2023/03/09 13:09:14;;;;;;;;;;;6.40;72.00;;;;;;5062092;28;20114;-63